sensor_id;sensor_type;location;lat;lon;timestamp;pressure;altitude;pressure_sealevel;temperature;humidity
75290;BME280;63883;48.996;20.804;2023-09-18T00:00:50;96991.25;;;14.72;100.00
75290;BME280;63883;48.996;20.804;2023-09-18T00:03:36;96991.25;;;14.72;100.00
75290;BME280;63883;48.996;20.804;2023-09-18T00:06:02;96983.78;;;14.66;100.00
75290;BME280;63883;48.996;20.804;2023-09-18T00:08:27;96987.28;;;14.64;100.00
75290;BME280;63883;48.996;20.804;2023-09-18T00:10:54;96988.81;;;14.69;100.00
75290;BME280;63883;48.996;20.804;2023-09-18T00:13:20;96986.16;;;14.71;100.00
75290;BME280;63883;48.996;20.804;2023-09-18T00:15:46;96993.94;;;14.69;100.00
75290;BME280;63883;48.996;20.804;2023-09-18T00:18:14;96996.66;;;14.65;100.00
75290;BME280;63883;48.996;20.804;2023-09-18T00:20:41;96988.97;;;14.65;100.00
75290;BME280;63883;48.996;20.804;2023-09-18T00:23:09;96989.09;;;14.62;100.00
75290;BME280;63883;48.996;20.804;2023-09-18T00:25:35;96990.09;;;14.58;100.00
75290;BME280;63883;48.996;20.804;2023-09-18T00:28:02;96982.56;;;14.53;100.00
75290;BME280;63883;48.996;20.804;2023-09-18T00:30:28;96979.94;;;14.55;100.00
75290;BME280;63883;48.996;20.804;2023-09-18T00:32:54;96974.91;;;14.52;100.00
75290;BME280;63883;48.996;20.804;2023-09-18T00:35:19;96973.84;;;14.57;100.00
75290;BME280;63883;48.996;20.804;2023-09-18T00:37:45;96983.22;;;14.58;100.00
75290;BME280;63883;48.996;20.804;2023-09-18T00:40:11;96991.09;;;14.54;100.00
75290;BME280;63883;48.996;20.804;2023-09-18T00:42:37;96975.09;;;14.47;100.00
75290;BME280;63883;48.996;20.804;2023-09-18T00:45:03;96990.53;;;14.45;100.00
75290;BME280;63883;48.996;20.804;2023-09-18T00:47:29;96986.34;;;14.43;100.00
75290;BME280;63883;48.996;20.804;2023-09-18T00:49:55;96988.94;;;14.41;100.00
75290;BME280;63883;48.996;20.804;2023-09-18T00:52:23;96980.50;;;14.39;100.00
75290;BME280;63883;48.996;20.804;2023-09-18T00:54:49;96971.81;;;14.42;100.00
75290;BME280;63883;48.996;20.804;2023-09-18T00:57:15;96967.59;;;14.41;100.00
75290;BME280;63883;48.996;20.804;2023-09-18T00:59:41;96961.56;;;14.42;100.00
75290;BME280;63883;48.996;20.804;2023-09-18T01:02:07;96959.06;;;14.40;100.00
75290;BME280;63883;48.996;20.804;2023-09-18T01:04:34;96958.28;;;14.38;100.00
75290;BME280;63883;48.996;20.804;2023-09-18T01:07:00;96948.13;;;14.34;100.00
75290;BME280;63883;48.996;20.804;2023-09-18T01:09:32;96960.44;;;14.26;100.00
75290;BME280;63883;48.996;20.804;2023-09-18T01:12:06;96968.22;;;14.23;100.00
75290;BME280;63883;48.996;20.804;2023-09-18T01:17:05;96963.63;;;14.07;100.00
75290;BME280;63883;48.996;20.804;2023-09-18T01:19:36;96968.88;;;14.04;100.00
75290;BME280;63883;48.996;20.804;2023-09-18T01:22:06;96979.28;;;14.00;100.00
75290;BME280;63883;48.996;20.804;2023-09-18T01:24:33;96981.03;;;13.98;100.00
75290;BME280;63883;48.996;20.804;2023-09-18T01:26:59;96974.19;;;13.98;100.00
75290;BME280;63883;48.996;20.804;2023-09-18T01:29:25;96975.88;;;13.99;100.00
75290;BME280;63883;48.996;20.804;2023-09-18T01:31:50;96976.00;;;13.96;100.00
75290;BME280;63883;48.996;20.804;2023-09-18T01:34:39;96971.06;;;13.90;100.00
75290;BME280;63883;48.996;20.804;2023-09-18T01:37:07;96973.00;;;13.84;100.00
75290;BME280;63883;48.996;20.804;2023-09-18T01:39:35;96974.91;;;13.77;100.00
75290;BME280;63883;48.996;20.804;2023-09-18T01:42:05;96976.72;;;13.75;100.00
75290;BME280;63883;48.996;20.804;2023-09-18T01:44:32;96975.88;;;13.75;100.00
75290;BME280;63883;48.996;20.804;2023-09-18T01:47:01;96975.09;;;13.73;100.00
75290;BME280;63883;48.996;20.804;2023-09-18T01:49:35;96967.47;;;13.69;100.00
75290;BME280;63883;48.996;20.804;2023-09-18T01:52:03;96972.72;;;13.66;100.00
75290;BME280;63883;48.996;20.804;2023-09-18T01:54:30;96969.53;;;13.60;100.00
75290;BME280;63883;48.996;20.804;2023-09-18T01:56:55;96972.19;;;13.57;100.00
75290;BME280;63883;48.996;20.804;2023-09-18T01:59:22;96968.19;;;13.48;100.00
75290;BME280;63883;48.996;20.804;2023-09-18T02:01:49;96962.44;;;13.42;100.00
75290;BME280;63883;48.996;20.804;2023-09-18T02:04:15;96961.78;;;13.35;100.00
75290;BME280;63883;48.996;20.804;2023-09-18T02:06:41;96973.00;;;13.33;100.00
75290;BME280;63883;48.996;20.804;2023-09-18T02:09:07;96973.09;;;13.29;100.00
75290;BME280;63883;48.996;20.804;2023-09-18T02:11:41;96979.09;;;13.28;100.00
75290;BME280;63883;48.996;20.804;2023-09-18T02:14:07;96974.84;;;13.27;100.00
75290;BME280;63883;48.996;20.804;2023-09-18T02:16:36;96972.25;;;13.29;100.00
75290;BME280;63883;48.996;20.804;2023-09-18T02:19:02;96974.56;;;13.37;100.00
75290;BME280;63883;48.996;20.804;2023-09-18T02:21:28;96968.50;;;13.39;100.00
75290;BME280;63883;48.996;20.804;2023-09-18T02:23:54;96976.03;;;13.44;100.00
75290;BME280;63883;48.996;20.804;2023-09-18T02:26:24;96968.94;;;13.52;100.00
75290;BME280;63883;48.996;20.804;2023-09-18T02:28:53;96972.97;;;13.59;100.00
75290;BME280;63883;48.996;20.804;2023-09-18T02:31:23;96967.03;;;13.58;100.00
75290;BME280;63883;48.996;20.804;2023-09-18T02:33:49;96964.25;;;13.64;100.00
75290;BME280;63883;48.996;20.804;2023-09-18T02:36:14;96973.53;;;13.68;100.00
75290;BME280;63883;48.996;20.804;2023-09-18T02:38:40;96975.94;;;13.73;100.00
75290;BME280;63883;48.996;20.804;2023-09-18T02:41:06;96974.91;;;13.77;100.00
75290;BME280;63883;48.996;20.804;2023-09-18T02:43:32;96966.13;;;13.84;100.00
75290;BME280;63883;48.996;20.804;2023-09-18T02:45:57;96966.03;;;13.87;100.00
75290;BME280;63883;48.996;20.804;2023-09-18T02:48:23;96964.28;;;13.89;100.00
75290;BME280;63883;48.996;20.804;2023-09-18T02:50:49;96963.34;;;13.90;100.00
75290;BME280;63883;48.996;20.804;2023-09-18T02:53:19;96973.63;;;13.90;100.00
75290;BME280;63883;48.996;20.804;2023-09-18T02:55:47;96971.06;;;13.90;100.00
75290;BME280;63883;48.996;20.804;2023-09-18T02:58:13;96983.13;;;13.88;100.00
75290;BME280;63883;48.996;20.804;2023-09-18T03:00:42;96972.94;;;13.85;100.00
75290;BME280;63883;48.996;20.804;2023-09-18T03:03:09;96980.59;;;13.87;100.00
75290;BME280;63883;48.996;20.804;2023-09-18T03:05:36;96968.59;;;13.87;100.00
75290;BME280;63883;48.996;20.804;2023-09-18T03:08:03;96980.53;;;13.88;100.00
75290;BME280;63883;48.996;20.804;2023-09-18T03:10:35;96983.94;;;13.89;100.00
75290;BME280;63883;48.996;20.804;2023-09-18T03:13:02;96971.97;;;13.89;100.00
75290;BME280;63883;48.996;20.804;2023-09-18T03:15:28;96970.25;;;13.90;100.00
75290;BME280;63883;48.996;20.804;2023-09-18T03:17:54;96972.00;;;13.88;100.00
75290;BME280;63883;48.996;20.804;2023-09-18T03:20:27;96967.69;;;13.90;100.00
75290;BME280;63883;48.996;20.804;2023-09-18T03:22:56;96957.47;;;13.88;100.00
75290;BME280;63883;48.996;20.804;2023-09-18T03:25:22;96970.16;;;13.91;100.00
75290;BME280;63883;48.996;20.804;2023-09-18T03:27:48;96960.78;;;13.90;100.00
75290;BME280;63883;48.996;20.804;2023-09-18T03:30:13;96966.66;;;13.94;100.00
75290;BME280;63883;48.996;20.804;2023-09-18T03:32:42;96969.19;;;13.95;100.00
75290;BME280;63883;48.996;20.804;2023-09-18T03:35:11;96974.31;;;13.95;100.00
75290;BME280;63883;48.996;20.804;2023-09-18T03:37:46;96965.00;;;13.93;100.00
75290;BME280;63883;48.996;20.804;2023-09-18T03:40:13;96964.06;;;13.95;100.00
75290;BME280;63883;48.996;20.804;2023-09-18T03:42:39;96963.19;;;13.96;100.00
75290;BME280;63883;48.996;20.804;2023-09-18T03:45:06;96968.31;;;13.96;100.00
75290;BME280;63883;48.996;20.804;2023-09-18T03:47:34;96958.94;;;13.95;100.00
75290;BME280;63883;48.996;20.804;2023-09-18T03:50:00;96962.47;;;13.91;100.00
75290;BME280;63883;48.996;20.804;2023-09-18T03:52:26;96955.56;;;13.93;100.00
75290;BME280;63883;48.996;20.804;2023-09-18T03:54:52;96954.69;;;13.94;100.00
75290;BME280;63883;48.996;20.804;2023-09-18T03:57:18;96953.84;;;13.94;100.00
75290;BME280;63883;48.996;20.804;2023-09-18T03:59:44;96952.06;;;13.96;100.00
75290;BME280;63883;48.996;20.804;2023-09-18T04:02:09;96954.59;;;13.97;100.00
75290;BME280;63883;48.996;20.804;2023-09-18T04:04:35;96942.56;;;13.98;100.00
75290;BME280;63883;48.996;20.804;2023-09-18T04:07:05;96940.09;;;13.96;100.00
75290;BME280;63883;48.996;20.804;2023-09-18T04:09:31;96938.41;;;13.95;100.00
75290;BME280;63883;48.996;20.804;2023-09-18T04:11:57;96936.63;;;13.97;100.00
75290;BME280;63883;48.996;20.804;2023-09-18T04:14:22;96945.09;;;13.99;100.00
75290;BME280;63883;48.996;20.804;2023-09-18T04:16:48;96941.66;;;14.00;100.00
75290;BME280;63883;48.996;20.804;2023-09-18T04:19:14;96938.28;;;13.98;100.00
75290;BME280;63883;48.996;20.804;2023-09-18T04:21:39;96939.13;;;13.99;100.00
75290;BME280;63883;48.996;20.804;2023-09-18T04:24:05;96933.28;;;13.95;100.00
75290;BME280;63883;48.996;20.804;2023-09-18T04:26:31;96928.94;;;13.97;100.00
75290;BME280;63883;48.996;20.804;2023-09-18T04:29:01;96934.97;;;13.96;100.00
75290;BME280;63883;48.996;20.804;2023-09-18T04:31:27;96932.44;;;13.95;100.00
75290;BME280;63883;48.996;20.804;2023-09-18T04:33:54;96932.44;;;13.95;100.00
75290;BME280;63883;48.996;20.804;2023-09-18T04:36:20;96935.06;;;13.93;100.00
75290;BME280;63883;48.996;20.804;2023-09-18T04:38:45;96928.38;;;13.89;100.00
75290;BME280;63883;48.996;20.804;2023-09-18T04:41:11;96935.28;;;13.87;100.00
75290;BME280;63883;48.996;20.804;2023-09-18T04:43:37;96936.19;;;13.85;100.00
75290;BME280;63883;48.996;20.804;2023-09-18T04:46:06;96933.59;;;13.86;100.00
75290;BME280;63883;48.996;20.804;2023-09-18T04:48:32;96932.94;;;13.81;100.00
75290;BME280;63883;48.996;20.804;2023-09-18T04:50:59;96936.19;;;13.85;100.00
75290;BME280;63883;48.996;20.804;2023-09-18T04:53:25;96935.22;;;13.89;100.00
75290;BME280;63883;48.996;20.804;2023-09-18T04:55:51;96944.66;;;13.88;100.00
75290;BME280;63883;48.996;20.804;2023-09-18T04:58:17;96936.06;;;13.89;100.00
75290;BME280;63883;48.996;20.804;2023-09-18T05:00:43;96936.06;;;13.89;100.00
75290;BME280;63883;48.996;20.804;2023-09-18T05:03:09;96931.81;;;13.88;100.00
75290;BME280;63883;48.996;20.804;2023-09-18T05:05:36;96936.16;;;13.86;100.00
75290;BME280;63883;48.996;20.804;2023-09-18T05:08:04;96931.06;;;13.85;100.00
75290;BME280;63883;48.996;20.804;2023-09-18T05:10:34;96931.91;;;13.85;100.00
75290;BME280;63883;48.996;20.804;2023-09-18T05:13:00;96932.75;;;13.86;100.00
75290;BME280;63883;48.996;20.804;2023-09-18T05:15:26;96936.09;;;13.88;100.00
75290;BME280;63883;48.996;20.804;2023-09-18T05:17:52;96933.38;;;13.92;100.00
75290;BME280;63883;48.996;20.804;2023-09-18T05:20:21;96934.97;;;13.96;100.00
75290;BME280;63883;48.996;20.804;2023-09-18T05:22:49;96926.25;;;14.00;100.00
75290;BME280;63883;48.996;20.804;2023-09-18T05:25:15;96925.19;;;14.06;100.00
75290;BME280;63883;48.996;20.804;2023-09-18T05:27:41;96923.47;;;14.06;100.00
75290;BME280;63883;48.996;20.804;2023-09-18T05:32:35;96927.72;;;14.07;100.00
75290;BME280;63883;48.996;20.804;2023-09-18T05:35:01;96926.81;;;14.08;100.00
75290;BME280;63883;48.996;20.804;2023-09-18T05:37:32;96925.88;;;14.11;100.00
75290;BME280;63883;48.996;20.804;2023-09-18T05:39:58;96938.53;;;14.16;100.00
75290;BME280;63883;48.996;20.804;2023-09-18T05:42:24;96935.81;;;14.20;100.00
75290;BME280;63883;48.996;20.804;2023-09-18T05:44:50;96922.66;;;14.29;100.00
75290;BME280;63883;48.996;20.804;2023-09-18T05:47:15;96925.13;;;14.32;100.00
75290;BME280;63883;48.996;20.804;2023-09-18T05:49:41;96930.97;;;14.36;100.00
75290;BME280;63883;48.996;20.804;2023-09-18T05:52:07;96917.22;;;14.38;100.00
75290;BME280;63883;48.996;20.804;2023-09-18T05:54:32;96922.97;;;14.45;100.00
75290;BME280;63883;48.996;20.804;2023-09-18T05:56:58;96916.75;;;14.51;100.00
75290;BME280;63883;48.996;20.804;2023-09-18T05:59:24;96916.56;;;14.55;100.00
75290;BME280;63883;48.996;20.804;2023-09-18T06:01:50;96923.38;;;14.56;100.00
75290;BME280;63883;48.996;20.804;2023-09-18T06:04:16;96930.88;;;14.62;100.00
75290;BME280;63883;48.996;20.804;2023-09-18T06:06:42;96924.66;;;14.68;100.00
75290;BME280;63883;48.996;20.804;2023-09-18T06:09:08;96922.06;;;14.69;100.00
75290;BME280;63883;48.996;20.804;2023-09-18T06:11:33;96918.34;;;14.76;100.00
75290;BME280;63883;48.996;20.804;2023-09-18T06:13:59;96924.78;;;14.87;100.00
75290;BME280;63883;48.996;20.804;2023-09-18T06:16:25;96920.25;;;14.93;100.00
75290;BME280;63883;48.996;20.804;2023-09-18T06:18:51;96913.88;;;15.03;100.00
75290;BME280;63883;48.996;20.804;2023-09-18T06:21:16;96921.38;;;15.08;100.00
75290;BME280;63883;48.996;20.804;2023-09-18T06:23:42;96923.28;;;15.24;100.00
75290;BME280;63883;48.996;20.804;2023-09-18T06:26:08;96912.75;;;15.31;100.00
75290;BME280;63883;48.996;20.804;2023-09-18T06:28:33;96910.66;;;15.40;100.00
75290;BME280;63883;48.996;20.804;2023-09-18T06:30:59;96909.38;;;15.50;100.00
75290;BME280;63883;48.996;20.804;2023-09-18T06:33:25;96904.97;;;15.54;100.00
75290;BME280;63883;48.996;20.804;2023-09-18T06:35:50;96908.13;;;15.60;100.00
75290;BME280;63883;48.996;20.804;2023-09-18T06:38:17;96909.66;;;15.65;100.00
75290;BME280;63883;48.996;20.804;2023-09-18T06:40:43;96909.28;;;15.74;100.00
75290;BME280;63883;48.996;20.804;2023-09-18T06:43:09;96910.94;;;15.75;100.00
75290;BME280;63883;48.996;20.804;2023-09-18T06:45:34;96912.38;;;15.82;100.00
75290;BME280;63883;48.996;20.804;2023-09-18T06:48:02;96915.38;;;15.91;100.00
75290;BME280;63883;48.996;20.804;2023-09-18T06:50:28;96912.50;;;15.99;100.00
75290;BME280;63883;48.996;20.804;2023-09-18T06:52:54;96899.34;;;16.05;100.00
75290;BME280;63883;48.996;20.804;2023-09-18T06:55:19;96908.66;;;16.08;100.00
75290;BME280;63883;48.996;20.804;2023-09-18T06:57:45;96897.97;;;16.17;100.00
75290;BME280;63883;48.996;20.804;2023-09-18T07:00:13;96899.56;;;16.19;100.00
75290;BME280;63883;48.996;20.804;2023-09-18T07:02:40;96902.78;;;16.24;100.00
75290;BME280;63883;48.996;20.804;2023-09-18T07:05:06;96893.09;;;16.29;100.00
75290;BME280;63883;48.996;20.804;2023-09-18T07:07:32;96893.66;;;16.36;100.00
75290;BME280;63883;48.996;20.804;2023-09-18T07:09:57;96890.44;;;16.50;100.00
75290;BME280;63883;48.996;20.804;2023-09-18T07:12:23;96887.00;;;16.69;100.00
75290;BME280;63883;48.996;20.804;2023-09-18T07:14:49;96889.78;;;16.84;100.00
75290;BME280;63883;48.996;20.804;2023-09-18T07:17:15;96888.34;;;16.95;100.00
75290;BME280;63883;48.996;20.804;2023-09-18T07:19:40;96884.88;;;16.96;100.00
75290;BME280;63883;48.996;20.804;2023-09-18T07:22:06;96883.59;;;17.05;100.00
75290;BME280;63883;48.996;20.804;2023-09-18T07:24:32;96892.34;;;17.20;100.00
75290;BME280;63883;48.996;20.804;2023-09-18T07:26:58;96887.47;;;17.31;100.00
75290;BME280;63883;48.996;20.804;2023-09-18T07:29:24;96885.66;;;17.33;100.00
75290;BME280;63883;48.996;20.804;2023-09-18T07:31:51;96887.50;;;17.48;100.00
75290;BME280;63883;48.996;20.804;2023-09-18T07:34:17;96894.56;;;17.62;100.00
75290;BME280;63883;48.996;20.804;2023-09-18T07:36:43;96889.63;;;17.74;100.00
75290;BME280;63883;48.996;20.804;2023-09-18T07:39:12;96889.16;;;17.83;100.00
75290;BME280;63883;48.996;20.804;2023-09-18T07:41:38;96890.44;;;17.92;100.00
75290;BME280;63883;48.996;20.804;2023-09-18T07:44:04;96884.38;;;17.93;100.00
75290;BME280;63883;48.996;20.804;2023-09-18T07:46:30;96884.13;;;17.98;100.00
75290;BME280;63883;48.996;20.804;2023-09-18T07:48:56;96886.06;;;18.10;100.00
75290;BME280;63883;48.996;20.804;2023-09-18T07:51:22;96885.94;;;18.44;100.00
75290;BME280;63883;48.996;20.804;2023-09-18T07:53:48;96883.81;;;18.68;100.00
75290;BME280;63883;48.996;20.804;2023-09-18T07:56:14;96879.13;;;19.06;100.00
75290;BME280;63883;48.996;20.804;2023-09-18T07:58:40;96875.72;;;19.35;100.00
75290;BME280;63883;48.996;20.804;2023-09-18T08:01:06;96876.34;;;19.55;100.00
75290;BME280;63883;48.996;20.804;2023-09-18T08:03:32;96870.38;;;19.82;100.00
75290;BME280;63883;48.996;20.804;2023-09-18T08:05:58;96866.06;;;20.11;99.33
75290;BME280;63883;48.996;20.804;2023-09-18T08:08:24;96869.75;;;20.50;96.36
75290;BME280;63883;48.996;20.804;2023-09-18T08:10:51;96868.94;;;20.76;94.97
75290;BME280;63883;48.996;20.804;2023-09-18T08:13:16;96865.69;;;20.87;90.87
75290;BME280;63883;48.996;20.804;2023-09-18T08:15:43;96868.13;;;21.02;93.95
75290;BME280;63883;48.996;20.804;2023-09-18T08:18:09;96875.28;;;21.26;94.62
75290;BME280;63883;48.996;20.804;2023-09-18T08:20:40;96880.31;;;21.15;89.18
75290;BME280;63883;48.996;20.804;2023-09-18T08:23:06;96877.16;;;21.24;89.31
75290;BME280;63883;48.996;20.804;2023-09-18T08:25:32;96876.44;;;21.34;90.92
75290;BME280;63883;48.996;20.804;2023-09-18T08:27:57;96877.84;;;21.53;88.86
75290;BME280;63883;48.996;20.804;2023-09-18T08:30:23;96883.06;;;21.65;88.51
75290;BME280;63883;48.996;20.804;2023-09-18T08:32:49;96877.75;;;21.67;88.43
75290;BME280;63883;48.996;20.804;2023-09-18T08:35:15;96873.41;;;21.80;87.89
75290;BME280;63883;48.996;20.804;2023-09-18T08:37:41;96877.34;;;21.73;85.66
75290;BME280;63883;48.996;20.804;2023-09-18T08:40:10;96872.56;;;21.79;88.59
75290;BME280;63883;48.996;20.804;2023-09-18T08:42:38;96873.50;;;21.78;86.32
75290;BME280;63883;48.996;20.804;2023-09-18T08:45:09;96873.81;;;21.74;86.25
75290;BME280;63883;48.996;20.804;2023-09-18T08:47:38;96871.25;;;22.25;84.34
75290;BME280;63883;48.996;20.804;2023-09-18T08:50:07;96880.84;;;22.61;81.26
75290;BME280;63883;48.996;20.804;2023-09-18T08:52:35;96870.63;;;22.83;82.15
75290;BME280;63883;48.996;20.804;2023-09-18T08:55:02;96864.34;;;22.85;79.11
75290;BME280;63883;48.996;20.804;2023-09-18T08:57:29;96858.31;;;23.09;77.98
75290;BME280;63883;48.996;20.804;2023-09-18T08:59:56;96856.84;;;23.28;73.33
75290;BME280;63883;48.996;20.804;2023-09-18T09:02:22;96867.72;;;23.22;71.54
75290;BME280;63883;48.996;20.804;2023-09-18T09:04:48;96864.81;;;23.62;71.85
75290;BME280;63883;48.996;20.804;2023-09-18T09:07:14;96865.34;;;24.11;68.15
75290;BME280;63883;48.996;20.804;2023-09-18T09:09:42;96862.75;;;24.23;64.05
75290;BME280;63883;48.996;20.804;2023-09-18T09:12:08;96862.06;;;24.21;62.74
75290;BME280;63883;48.996;20.804;2023-09-18T09:14:34;96859.66;;;24.18;63.36
75290;BME280;63883;48.996;20.804;2023-09-18T09:16:59;96859.19;;;23.90;62.98
75290;BME280;63883;48.996;20.804;2023-09-18T09:19:33;96855.19;;;24.20;63.52
75290;BME280;63883;48.996;20.804;2023-09-18T09:22:01;96853.25;;;23.99;64.01
75290;BME280;63883;48.996;20.804;2023-09-18T09:24:38;96852.53;;;23.86;64.10
75290;BME280;63883;48.996;20.804;2023-09-18T09:27:04;96848.50;;;23.93;64.68
75290;BME280;63883;48.996;20.804;2023-09-18T09:29:30;96843.19;;;23.84;64.22
75290;BME280;63883;48.996;20.804;2023-09-18T09:32:11;96842.31;;;23.72;65.77
75290;BME280;63883;48.996;20.804;2023-09-18T09:34:38;96842.53;;;23.58;66.79
75290;BME280;63883;48.996;20.804;2023-09-18T09:37:03;96834.66;;;23.47;65.51
75290;BME280;63883;48.996;20.804;2023-09-18T09:39:30;96817.59;;;24.00;64.26
75290;BME280;63883;48.996;20.804;2023-09-18T09:41:59;96820.44;;;24.96;61.95
75290;BME280;63883;48.996;20.804;2023-09-18T09:44:25;96827.59;;;25.46;58.51
75290;BME280;63883;48.996;20.804;2023-09-18T09:46:52;96826.63;;;26.19;57.57
75290;BME280;63883;48.996;20.804;2023-09-18T09:49:18;96830.81;;;26.01;54.99
75290;BME280;63883;48.996;20.804;2023-09-18T09:51:45;96829.56;;;26.26;55.13
75290;BME280;63883;48.996;20.804;2023-09-18T09:54:11;96828.94;;;25.61;54.98
75290;BME280;63883;48.996;20.804;2023-09-18T09:56:47;96825.03;;;25.35;57.15
75290;BME280;63883;48.996;20.804;2023-09-18T09:59:17;96816.84;;;25.08;59.14
75290;BME280;63883;48.996;20.804;2023-09-18T10:01:46;96819.75;;;24.94;58.16
75290;BME280;63883;48.996;20.804;2023-09-18T10:04:18;96824.97;;;24.82;59.85
75290;BME280;63883;48.996;20.804;2023-09-18T10:06:49;96820.44;;;24.41;58.33
75290;BME280;63883;48.996;20.804;2023-09-18T10:09:17;96824.47;;;24.01;58.87
75290;BME280;63883;48.996;20.804;2023-09-18T10:11:45;96812.72;;;23.62;61.95
75290;BME280;63883;48.996;20.804;2023-09-18T10:14:17;96806.13;;;23.34;62.17
75290;BME280;63883;48.996;20.804;2023-09-18T10:16:49;96806.44;;;23.29;63.25
75290;BME280;63883;48.996;20.804;2023-09-18T10:24:40;96804.56;;;24.87;57.20
75290;BME280;63883;48.996;20.804;2023-09-18T10:27:09;96796.00;;;25.49;56.26
75290;BME280;63883;48.996;20.804;2023-09-18T10:29:41;96795.94;;;25.60;54.92
75290;BME280;63883;48.996;20.804;2023-09-18T10:32:07;96794.81;;;26.14;52.86
75290;BME280;63883;48.996;20.804;2023-09-18T10:34:34;96803.69;;;26.72;51.11
75290;BME280;63883;48.996;20.804;2023-09-18T10:37:02;96789.53;;;26.44;51.12
75290;BME280;63883;48.996;20.804;2023-09-18T10:39:35;96792.38;;;26.72;50.13
75290;BME280;63883;48.996;20.804;2023-09-18T10:42:02;96786.34;;;27.10;48.61
75290;BME280;63883;48.996;20.804;2023-09-18T10:44:30;96785.84;;;25.77;51.44
75290;BME280;63883;48.996;20.804;2023-09-18T10:46:58;96792.28;;;25.31;53.74
75290;BME280;63883;48.996;20.804;2023-09-18T10:49:24;96786.69;;;25.36;54.49
75290;BME280;63883;48.996;20.804;2023-09-18T10:51:54;96784.63;;;26.61;51.24
75290;BME280;63883;48.996;20.804;2023-09-18T10:54:22;96774.91;;;27.01;48.68
75290;BME280;63883;48.996;20.804;2023-09-18T10:56:48;96785.81;;;27.06;47.99
75290;BME280;63883;48.996;20.804;2023-09-18T10:59:15;96776.91;;;26.59;49.10
75290;BME280;63883;48.996;20.804;2023-09-18T11:01:44;96772.56;;;26.98;48.13
75290;BME280;63883;48.996;20.804;2023-09-18T11:04:10;96782.41;;;26.66;49.50
75290;BME280;63883;48.996;20.804;2023-09-18T11:09:26;96769.72;;;26.42;51.38
75290;BME280;63883;48.996;20.804;2023-09-18T11:12:16;96774.09;;;25.92;50.79
75290;BME280;63883;48.996;20.804;2023-09-18T11:14:56;96775.56;;;25.85;50.74
75290;BME280;63883;48.996;20.804;2023-09-18T11:17:38;96757.63;;;25.50;51.98
75290;BME280;63883;48.996;20.804;2023-09-18T11:20:23;96766.38;;;25.90;49.96
75290;BME280;63883;48.996;20.804;2023-09-18T11:23:10;96768.78;;;26.13;49.38
75290;BME280;63883;48.996;20.804;2023-09-18T11:25:41;96762.28;;;25.46;51.82
75290;BME280;63883;48.996;20.804;2023-09-18T11:28:14;96762.31;;;25.77;50.16
75290;BME280;63883;48.996;20.804;2023-09-18T11:30:53;96760.84;;;25.84;49.25
75290;BME280;63883;48.996;20.804;2023-09-18T11:35:56;96752.63;;;26.28;48.92
75290;BME280;63883;48.996;20.804;2023-09-18T11:38:23;96750.50;;;26.72;47.51
75290;BME280;63883;48.996;20.804;2023-09-18T11:40:49;96742.47;;;27.31;47.29
75290;BME280;63883;48.996;20.804;2023-09-18T11:43:22;96740.75;;;26.93;47.67
75290;BME280;63883;48.996;20.804;2023-09-18T11:45:56;96732.25;;;27.38;47.35
75290;BME280;63883;48.996;20.804;2023-09-18T11:48:23;96743.34;;;27.78;45.76
75290;BME280;63883;48.996;20.804;2023-09-18T11:50:54;96739.34;;;27.74;44.63
75290;BME280;63883;48.996;20.804;2023-09-18T11:53:23;96748.38;;;26.47;47.37
75290;BME280;63883;48.996;20.804;2023-09-18T11:55:50;96735.50;;;26.93;46.87
75290;BME280;63883;48.996;20.804;2023-09-18T11:58:15;96762.31;;;26.66;47.41
75290;BME280;63883;48.996;20.804;2023-09-18T12:00:42;96745.66;;;25.47;50.60
75290;BME280;63883;48.996;20.804;2023-09-18T12:05:44;96743.28;;;25.03;52.74
75290;BME280;63883;48.996;20.804;2023-09-18T12:08:11;96738.91;;;25.03;52.97
75290;BME280;63883;48.996;20.804;2023-09-18T12:10:37;96734.91;;;24.99;53.26
75290;BME280;63883;48.996;20.804;2023-09-18T12:13:06;96739.66;;;24.51;54.28
75290;BME280;63883;48.996;20.804;2023-09-18T12:15:34;96731.31;;;24.36;54.92
75290;BME280;63883;48.996;20.804;2023-09-18T12:18:06;96734.09;;;24.56;54.80
75290;BME280;63883;48.996;20.804;2023-09-18T12:20:33;96735.84;;;25.19;53.86
75290;BME280;63883;48.996;20.804;2023-09-18T12:23:00;96733.28;;;25.70;50.87
75290;BME280;63883;48.996;20.804;2023-09-18T12:25:26;96737.50;;;26.61;48.77
75290;BME280;63883;48.996;20.804;2023-09-18T12:27:52;96735.03;;;27.27;47.37
75290;BME280;63883;48.996;20.804;2023-09-18T12:30:19;96742.19;;;27.34;46.20
75290;BME280;63883;48.996;20.804;2023-09-18T12:32:46;96751.34;;;27.01;47.30
75290;BME280;63883;48.996;20.804;2023-09-18T12:35:16;96743.72;;;26.00;49.34
75290;BME280;63883;48.996;20.804;2023-09-18T12:37:44;96739.97;;;25.21;52.80
75290;BME280;63883;48.996;20.804;2023-09-18T12:42:47;96735.97;;;25.38;52.53
75290;BME280;63883;48.996;20.804;2023-09-18T12:45:13;96744.75;;;25.37;51.93
75290;BME280;63883;48.996;20.804;2023-09-18T12:47:39;96742.28;;;25.36;52.37
75290;BME280;63883;48.996;20.804;2023-09-18T12:50:06;96742.25;;;25.56;51.29
75290;BME280;63883;48.996;20.804;2023-09-18T12:52:36;96735.44;;;25.44;52.44
75290;BME280;63883;48.996;20.804;2023-09-18T12:55:02;96744.41;;;25.21;53.29
75290;BME280;63883;48.996;20.804;2023-09-18T12:57:31;96732.31;;;24.56;53.95
75290;BME280;63883;48.996;20.804;2023-09-18T12:59:57;96733.50;;;24.52;54.49
75290;BME280;63883;48.996;20.804;2023-09-18T13:02:23;96722.94;;;25.69;52.60
75290;BME280;63883;48.996;20.804;2023-09-18T13:04:54;96717.13;;;26.74;48.17